Time;durP1;ratioP1;P1;durP2;ratioP2;P2;SDS_P1;SDS_P2;PMS_P1;PMS_P2;Temp;Humidity;BMP_temperature;BMP_pressure;BME280_temperature;BME280_humidity;BME280_pressure;Samples;Min_cycle;Max_cycle;Signal;HPM_P1;HPM_P2
2024/04/18 00:00:04;;;;;;;;;;;;;;;;;;368837;26;1050;-81
2024/04/18 00:00:14;;;;;;;;;;;;;;;;;;366504;27;957;-80
2024/04/18 00:00:24;;;;;;;;;;;;;;;;;;366518;27;975;-81
2024/04/18 00:00:34;;;;;;;;;;;;;;;;;;366547;27;992;-81
2024/04/18 00:00:45;;;;;;;;;;;;;;;;;;368764;26;1055;-80
2024/04/18 00:00:55;;;;;;;;;;;;;;;;;;368974;26;844;-81
2024/04/18 00:01:05;;;;;;;;;;;;;;;;;;371130;26;1047;-81
2024/04/18 00:01:15;;;;;;;;;;;;;;;;;;371284;26;1043;-81
2024/04/18 00:01:26;;;;;;;;;;;;;;;;;;371268;26;948;-80
2024/04/18 00:01:36;;;;;;;;;;;;;;;;;;371333;26;991;-81
2024/04/18 00:01:50;;;;;;;;;;;;;;;;;;368644;26;1199;-81
2024/04/18 00:02:00;;;;;;;;;;;;;;;;;;368831;26;1022;-81
2024/04/18 00:02:10;;;;;;;;;;;;;;;;;;368707;26;823;-81
2024/04/18 00:02:20;;;;;;;;;;;;;;;;;;368872;26;1036;-81
2024/04/18 00:02:31;;;;;;;;;;;;;;;;;;371179;26;1208;-81
2024/04/18 00:02:41;;;;;;;;;;;;;;;;;;372823;26;1385;-81
2024/04/18 00:02:52;;;;;;;;;;;;;;;;;;373632;26;1821;-81
2024/04/18 00:03:02;;;;;;;;;;;;;;;;;;371144;26;2013;-81
2024/04/18 00:03:12;;;;;;;;;;;;;;;;;;370720;26;1506;-81
2024/04/18 00:03:22;;;;;;;;;;;;;;;;;;371198;26;1308;-81
2024/04/18 00:03:33;;;;;;;;;;;;;;;;;;371286;26;988;-81
2024/04/18 00:03:43;;;;;;;;;;;;;;;;;;371259;26;972;-81
2024/04/18 00:03:54;;;;;;;;;;;;;;;;;;371333;26;1078;-81
2024/04/18 00:04:04;;;;;;;;;;;;;;;;;;371310;26;1046;-81
2024/04/18 00:04:14;;;;;;;;;;;;;;;;;;371107;26;1007;-81
2024/04/18 00:04:24;;;;;;;;;;;;;;;;;;371331;26;1000;-81
2024/04/18 00:04:34;;;;;;;;;;;;;;;;;;373415;26;1027;-81
2024/04/18 00:04:45;;;;;;;;;;;;;;;;;;371001;26;1777;-81
2024/04/18 00:04:55;;;;;;;;;;;;;;;;;;368899;26;949;-81
2024/04/18 00:05:05;;;;;;;;;;;;;;;;;;368823;26;1008;-81
2024/04/18 00:05:18;;;;;;;;;;;;;;;;;;366444;27;1196;-81
2024/04/18 00:05:28;;;;;;;;;;;;;;;;;;366537;27;897;-81
2024/04/18 00:05:39;;;;;;;;;;;;;;;;;;366420;27;1095;-80
2024/04/18 00:05:49;;;;;;;;;;;;;;;;;;366432;27;1309;-81
2024/04/18 00:05:59;;;;;;;;;;;;;;;;;;366254;27;1231;-81
2024/04/18 00:06:10;;;;;;;;;;;;;;;;;;366448;27;1059;-81
2024/04/18 00:06:20;;;;;;;;;;;;;;;;;;367710;26;1537;-80
2024/04/18 00:06:31;;;;;;;;;;;;;;;;;;368801;26;999;-81
2024/04/18 00:06:41;;;;;;;;;;;;;;;;;;368649;26;1264;-81
2024/04/18 00:06:51;;;;;;;;;;;;;;;;;;368820;26;1011;-81
2024/04/18 00:07:02;;;;;;;;;;;;;;;;;;366161;27;1316;-81
2024/04/18 00:07:12;;;;;;;;;;;;;;;;;;368659;26;1356;-81
2024/04/18 00:07:22;;;;;;;;;;;;;;;;;;368549;26;989;-81
2024/04/18 00:07:33;;;;;;;;;;;;;;;;;;370063;26;1165;-80
2024/04/18 00:07:43;;;;;;;;;;;;;;;;;;371146;26;746;-81
2024/04/18 00:07:53;;;;;;;;;;;;;;;;;;371233;26;1028;-80
2024/04/18 00:08:04;;;;;;;;;;;;;;;;;;371119;26;1044;-81
2024/04/18 00:08:14;;;;;;;;;;;;;;;;;;371314;26;932;-81
2024/04/18 00:08:24;;;;;;;;;;;;;;;;;;371222;26;810;-80
2024/04/18 00:08:35;;;;;;;;;;;;;;;;;;371293;26;1003;-81
2024/04/18 00:08:45;;;;;;;;;;;;;;;;;;371143;26;1027;-81
2024/04/18 00:08:55;;;;;;;;;;;;;;;;;;371853;26;1016;-81
2024/04/18 00:09:05;;;;;;;;;;;;;;;;;;373596;26;1225;-80
2024/04/18 00:09:16;;;;;;;;;;;;;;;;;;373609;26;1119;-81
2024/04/18 00:09:26;;;;;;;;;;;;;;;;;;371015;26;1198;-81
2024/04/18 00:09:36;;;;;;;;;;;;;;;;;;369100;26;1424;-80
2024/04/18 00:09:46;;;;;;;;;;;;;;;;;;368885;26;928;-81
2024/04/18 00:09:56;;;;;;;;;;;;;;;;;;366951;26;909;-81
2024/04/18 00:10:07;;;;;;;;;;;;;;;;;;368923;26;837;-81
2024/04/18 00:10:17;;;;;;;;;;;;;;;;;;368786;26;880;-81
2024/04/18 00:10:27;;;;;;;;;;;;;;;;;;366372;27;1265;-81
2024/04/18 00:10:40;;;;;;;;;;;;;;;;;;366435;27;897;-81
2024/04/18 00:10:53;;;;;;;;;;;;;;;;;;368169;26;1444;-81
2024/04/18 00:11:05;;;;;;;;;;;;;;;;;;368770;26;1028;-81
2024/04/18 00:11:15;;;;;;;;;;;;;;;;;;368619;26;1011;-81
2024/04/18 00:11:25;;;;;;;;;;;;;;;;;;368860;26;814;-80
2024/04/18 00:11:35;;;;;;;;;;;;;;;;;;368542;26;1056;-80
2024/04/18 00:11:46;;;;;;;;;;;;;;;;;;368787;26;1023;-81
2024/04/18 00:11:56;;;;;;;;;;;;;;;;;;371198;26;1090;-80
2024/04/18 00:12:06;;;;;;;;;;;;;;;;;;371184;26;1035;-80
2024/04/18 00:12:16;;;;;;;;;;;;;;;;;;371040;26;1079;-80
2024/04/18 00:12:26;;;;;;;;;;;;;;;;;;372602;26;1475;-81
2024/04/18 00:12:38;;;;;;;;;;;;;;;;;;373291;26;1323;-81
2024/04/18 00:12:48;;;;;;;;;;;;;;;;;;368718;26;1455;-80
2024/04/18 00:12:58;;;;;;;;;;;;;;;;;;366083;26;1207;-81
2024/04/18 00:13:08;;;;;;;;;;;;;;;;;;364133;27;965;-80
2024/04/18 00:13:19;;;;;;;;;;;;;;;;;;366479;27;1044;-81
2024/04/18 00:13:29;;;;;;;;;;;;;;;;;;368777;26;1107;-81
2024/04/18 00:13:39;;;;;;;;;;;;;;;;;;368554;26;1016;-80
2024/04/18 00:13:49;;;;;;;;;;;;;;;;;;371099;26;1206;-81
2024/04/18 00:14:00;;;;;;;;;;;;;;;;;;371132;26;1031;-81
2024/04/18 00:14:10;;;;;;;;;;;;;;;;;;371193;26;1016;-80
2024/04/18 00:14:20;;;;;;;;;;;;;;;;;;368725;26;1240;-81
2024/04/18 00:14:30;;;;;;;;;;;;;;;;;;368891;26;829;-81
2024/04/18 00:14:40;;;;;;;;;;;;;;;;;;368610;26;1211;-81
2024/04/18 00:14:51;;;;;;;;;;;;;;;;;;368858;26;1031;-81
2024/04/18 00:15:01;;;;;;;;;;;;;;;;;;368753;26;1317;-81
2024/04/18 00:15:14;;;;;;;;;;;;;;;;;;368579;26;1378;-81
2024/04/18 00:15:25;;;;;;;;;;;;;;;;;;368810;26;1019;-81
2024/04/18 00:15:35;;;;;;;;;;;;;;;;;;368830;26;1366;-81
2024/04/18 00:15:45;;;;;;;;;;;;;;;;;;368289;26;996;-81
2024/04/18 00:15:55;;;;;;;;;;;;;;;;;;366404;26;1277;-81
2024/04/18 00:16:06;;;;;;;;;;;;;;;;;;370928;26;1024;-81
2024/04/18 00:16:16;;;;;;;;;;;;;;;;;;371197;26;1027;-81
2024/04/18 00:16:26;;;;;;;;;;;;;;;;;;368811;26;889;-80
2024/04/18 00:16:36;;;;;;;;;;;;;;;;;;371033;26;1382;-80
2024/04/18 00:16:46;;;;;;;;;;;;;;;;;;371070;26;1039;-81
2024/04/18 00:16:57;;;;;;;;;;;;;;;;;;371187;26;1154;-80
2024/04/18 00:17:07;;;;;;;;;;;;;;;;;;370532;26;1524;-80
2024/04/18 00:17:17;;;;;;;;;;;;;;;;;;370097;26;1712;-80
2024/04/18 00:17:27;;;;;;;;;;;;;;;;;;371210;26;1071;-80
2024/04/18 00:17:38;;;;;;;;;;;;;;;;;;371059;26;1043;-80
2024/04/18 00:17:48;;;;;;;;;;;;;;;;;;370357;26;1886;-81
2024/04/18 00:17:58;;;;;;;;;;;;;;;;;;368126;26;997;-81
2024/04/18 00:18:09;;;;;;;;;;;;;;;;;;366478;27;779;-80
2024/04/18 00:18:19;;;;;;;;;;;;;;;;;;369119;26;1054;-81
2024/04/18 00:18:29;;;;;;;;;;;;;;;;;;368769;26;1242;-81
2024/04/18 00:18:39;;;;;;;;;;;;;;;;;;368352;26;1041;-81
2024/04/18 00:18:50;;;;;;;;;;;;;;;;;;368711;26;1546;-81
2024/04/18 00:19:00;;;;;;;;;;;;;;;;;;368438;26;942;-80
2024/04/18 00:19:10;;;;;;;;;;;;;;;;;;366373;27;1234;-81
2024/04/18 00:19:20;;;;;;;;;;;;;;;;;;366294;27;1202;-81
2024/04/18 00:19:30;;;;;;;;;;;;;;;;;;366514;27;1000;-81
2024/04/18 00:19:41;;;;;;;;;;;;;;;;;;370055;26;1451;-80
2024/04/18 00:19:51;;;;;;;;;;;;;;;;;;371249;26;1153;-81
2024/04/18 00:20:02;;;;;;;;;;;;;;;;;;368761;26;1133;-81
2024/04/18 00:20:12;;;;;;;;;;;;;;;;;;368910;26;1044;-81
2024/04/18 00:20:23;;;;;;;;;;;;;;;;;;368678;26;1393;-81
2024/04/18 00:20:33;;;;;;;;;;;;;;;;;;367501;26;1471;-81
2024/04/18 00:20:44;;;;;;;;;;;;;;;;;;364020;27;1036;-80
2024/04/18 00:20:54;;;;;;;;;;;;;;;;;;371023;26;1295;-80
2024/04/18 00:21:04;;;;;;;;;;;;;;;;;;371165;26;1039;-80
2024/04/18 00:21:14;;;;;;;;;;;;;;;;;;371139;26;750;-80
2024/04/18 00:21:25;;;;;;;;;;;;;;;;;;371108;26;1020;-81
2024/04/18 00:21:35;;;;;;;;;;;;;;;;;;371241;26;1032;-81
2024/04/18 00:21:45;;;;;;;;;;;;;;;;;;371151;26;1031;-81
2024/04/18 00:21:56;;;;;;;;;;;;;;;;;;373615;26;1012;-80
2024/04/18 00:22:06;;;;;;;;;;;;;;;;;;369070;26;1326;-81
2024/04/18 00:22:16;;;;;;;;;;;;;;;;;;371282;26;1004;-80
2024/04/18 00:22:27;;;;;;;;;;;;;;;;;;368725;26;1059;-81
2024/04/18 00:22:37;;;;;;;;;;;;;;;;;;368872;26;1020;-81
2024/04/18 00:22:47;;;;;;;;;;;;;;;;;;368499;26;1425;-80
2024/04/18 00:22:57;;;;;;;;;;;;;;;;;;368559;26;1834;-80
2024/04/18 00:23:07;;;;;;;;;;;;;;;;;;368739;26;1035;-81
2024/04/18 00:23:18;;;;;;;;;;;;;;;;;;368833;26;1062;-81
2024/04/18 00:23:28;;;;;;;;;;;;;;;;;;368724;26;1004;-81
2024/04/18 00:23:38;;;;;;;;;;;;;;;;;;368814;26;1032;-81
2024/04/18 00:23:51;;;;;;;;;;;;;;;;;;369684;26;1346;-80
2024/04/18 00:24:01;;;;;;;;;;;;;;;;;;368715;26;1337;-81
2024/04/18 00:24:11;;;;;;;;;;;;;;;;;;368924;26;1016;-81
2024/04/18 00:24:21;;;;;;;;;;;;;;;;;;368898;26;1039;-81
2024/04/18 00:24:32;;;;;;;;;;;;;;;;;;368729;26;996;-80
2024/04/18 00:24:42;;;;;;;;;;;;;;;;;;371325;26;996;-81
2024/04/18 00:24:52;;;;;;;;;;;;;;;;;;372132;26;1062;-81
2024/04/18 00:25:02;;;;;;;;;;;;;;;;;;373725;26;1087;-81
2024/04/18 00:25:13;;;;;;;;;;;;;;;;;;372537;26;1062;-80
2024/04/18 00:25:23;;;;;;;;;;;;;;;;;;371139;26;1000;-81
2024/04/18 00:25:33;;;;;;;;;;;;;;;;;;371139;26;992;-81
2024/04/18 00:25:43;;;;;;;;;;;;;;;;;;373417;26;1028;-80
2024/04/18 00:25:53;;;;;;;;;;;;;;;;;;371493;26;1421;-80
2024/04/18 00:26:04;;;;;;;;;;;;;;;;;;373618;26;1027;-80
2024/04/18 00:26:14;;;;;;;;;;;;;;;;;;373485;26;936;-81
2024/04/18 00:26:24;;;;;;;;;;;;;;;;;;371018;26;1293;-80
2024/04/18 00:26:34;;;;;;;;;;;;;;;;;;368783;26;929;-81
2024/04/18 00:26:44;;;;;;;;;;;;;;;;;;368796;26;795;-80
2024/04/18 00:26:55;;;;;;;;;;;;;;;;;;368842;26;1004;-81
2024/04/18 00:27:05;;;;;;;;;;;;;;;;;;368579;26;1063;-80
2024/04/18 00:27:15;;;;;;;;;;;;;;;;;;368817;26;957;-80
2024/04/18 00:27:27;;;;;;;;;;;;;;;;;;368608;26;1131;-81
2024/04/18 00:27:37;;;;;;;;;;;;;;;;;;371165;26;1023;-81
2024/04/18 00:27:47;;;;;;;;;;;;;;;;;;370986;26;1285;-81
2024/04/18 00:27:58;;;;;;;;;;;;;;;;;;371254;26;946;-81
2024/04/18 00:28:08;;;;;;;;;;;;;;;;;;368532;26;1259;-80
2024/04/18 00:28:18;;;;;;;;;;;;;;;;;;368830;26;984;-81
2024/04/18 00:28:28;;;;;;;;;;;;;;;;;;368749;26;1350;-81
2024/04/18 00:28:38;;;;;;;;;;;;;;;;;;368799;26;1012;-81
2024/04/18 00:28:49;;;;;;;;;;;;;;;;;;366402;27;988;-81
2024/04/18 00:28:59;;;;;;;;;;;;;;;;;;366485;27;1001;-80
2024/04/18 00:29:10;;;;;;;;;;;;;;;;;;368619;26;1156;-80
2024/04/18 00:29:20;;;;;;;;;;;;;;;;;;368732;26;992;-80
2024/04/18 00:29:30;;;;;;;;;;;;;;;;;;368554;26;901;-81
2024/04/18 00:29:40;;;;;;;;;;;;;;;;;;368010;26;1280;-81
2024/04/18 00:29:51;;;;;;;;;;;;;;;;;;366487;27;948;-81
2024/04/18 00:30:01;;;;;;;;;;;;;;;;;;366510;27;1009;-80
2024/04/18 00:30:11;;;;;;;;;;;;;;;;;;368178;26;1300;-81
2024/04/18 00:30:21;;;;;;;;;;;;;;;;;;371269;26;1079;-81
2024/04/18 00:30:31;;;;;;;;;;;;;;;;;;370990;26;833;-80
2024/04/18 00:30:42;;;;;;;;;;;;;;;;;;371316;26;1091;-81
2024/04/18 00:30:52;;;;;;;;;;;;;;;;;;371179;26;995;-81
2024/04/18 00:31:02;;;;;;;;;;;;;;;;;;371251;26;992;-80
2024/04/18 00:31:12;;;;;;;;;;;;;;;;;;368533;26;1298;-80
2024/04/18 00:31:22;;;;;;;;;;;;;;;;;;369175;26;1613;-81
2024/04/18 00:31:33;;;;;;;;;;;;;;;;;;371612;26;1008;-81
2024/04/18 00:31:43;;;;;;;;;;;;;;;;;;373513;26;1168;-80
2024/04/18 00:31:53;;;;;;;;;;;;;;;;;;373252;26;1535;-81
2024/04/18 00:32:03;;;;;;;;;;;;;;;;;;373989;26;1050;-80
2024/04/18 00:32:14;;;;;;;;;;;;;;;;;;373550;26;1228;-81
2024/04/18 00:32:24;;;;;;;;;;;;;;;;;;371167;26;1240;-81
2024/04/18 00:32:34;;;;;;;;;;;;;;;;;;370258;26;1898;-81
2024/04/18 00:32:45;;;;;;;;;;;;;;;;;;371116;26;1008;-81
2024/04/18 00:32:55;;;;;;;;;;;;;;;;;;371013;26;1636;-81
2024/04/18 00:33:05;;;;;;;;;;;;;;;;;;371642;26;1059;-81
2024/04/18 00:33:15;;;;;;;;;;;;;;;;;;370918;26;1004;-81
2024/04/18 00:33:26;;;;;;;;;;;;;;;;;;369193;26;1127;-80
2024/04/18 00:33:36;;;;;;;;;;;;;;;;;;368705;26;996;-80
2024/04/18 00:33:47;;;;;;;;;;;;;;;;;;368877;26;849;-80
2024/04/18 00:33:57;;;;;;;;;;;;;;;;;;368664;26;1047;-80
2024/04/18 00:34:07;;;;;;;;;;;;;;;;;;369800;26;996;-80
2024/04/18 00:34:17;;;;;;;;;;;;;;;;;;371414;26;1510;-80
2024/04/18 00:34:27;;;;;;;;;;;;;;;;;;368680;26;1281;-80
2024/04/18 00:34:38;;;;;;;;;;;;;;;;;;368718;26;1004;-81
2024/04/18 00:34:48;;;;;;;;;;;;;;;;;;368731;26;948;-81
2024/04/18 00:34:58;;;;;;;;;;;;;;;;;;366516;26;1322;-81
2024/04/18 00:35:08;;;;;;;;;;;;;;;;;;363883;27;1254;-81
2024/04/18 00:35:19;;;;;;;;;;;;;;;;;;368690;26;1282;-80
2024/04/18 00:35:29;;;;;;;;;;;;;;;;;;370858;26;1389;-81
2024/04/18 00:35:39;;;;;;;;;;;;;;;;;;371224;26;1027;-80
2024/04/18 00:35:50;;;;;;;;;;;;;;;;;;371093;26;980;-81
2024/04/18 00:36:00;;;;;;;;;;;;;;;;;;373501;26;1159;-80
2024/04/18 00:36:10;;;;;;;;;;;;;;;;;;368601;26;1157;-81
2024/04/18 00:36:20;;;;;;;;;;;;;;;;;;371164;26;1040;-80
2024/04/18 00:36:31;;;;;;;;;;;;;;;;;;368869;26;751;-81
2024/04/18 00:36:41;;;;;;;;;;;;;;;;;;371059;26;1487;-80
2024/04/18 00:36:51;;;;;;;;;;;;;;;;;;371073;26;857;-80
2024/04/18 00:37:01;;;;;;;;;;;;;;;;;;371188;26;1024;-80
2024/04/18 00:37:11;;;;;;;;;;;;;;;;;;371157;26;1035;-81
2024/04/18 00:37:22;;;;;;;;;;;;;;;;;;373517;26;1260;-80
2024/04/18 00:37:32;;;;;;;;;;;;;;;;;;372466;26;1566;-81
2024/04/18 00:37:42;;;;;;;;;;;;;;;;;;373654;26;1028;-81
2024/04/18 00:37:52;;;;;;;;;;;;;;;;;;373557;26;992;-81
2024/04/18 00:38:03;;;;;;;;;;;;;;;;;;373697;26;1036;-81
2024/04/18 00:38:13;;;;;;;;;;;;;;;;;;370911;26;1236;-80
2024/04/18 00:38:23;;;;;;;;;;;;;;;;;;366253;27;1192;-80
2024/04/18 00:38:34;;;;;;;;;;;;;;;;;;370472;26;1697;-80
2024/04/18 00:38:44;;;;;;;;;;;;;;;;;;371248;26;1043;-81
2024/04/18 00:38:54;;;;;;;;;;;;;;;;;;371013;26;992;-81
2024/04/18 00:39:04;;;;;;;;;;;;;;;;;;368691;26;1247;-80
2024/04/18 00:39:14;;;;;;;;;;;;;;;;;;371045;26;1075;-80
2024/04/18 00:39:25;;;;;;;;;;;;;;;;;;373598;26;1277;-81
2024/04/18 00:39:35;;;;;;;;;;;;;;;;;;370923;26;1051;-80
2024/04/18 00:39:47;;;;;;;;;;;;;;;;;;370698;26;1325;-81
2024/04/18 00:39:57;;;;;;;;;;;;;;;;;;370736;26;1369;-80
2024/04/18 00:40:07;;;;;;;;;;;;;;;;;;366455;27;1064;-81
2024/04/18 00:40:18;;;;;;;;;;;;;;;;;;371019;26;1408;-81
2024/04/18 00:40:28;;;;;;;;;;;;;;;;;;371085;26;1595;-81
2024/04/18 00:40:38;;;;;;;;;;;;;;;;;;373610;26;1036;-81
2024/04/18 00:40:48;;;;;;;;;;;;;;;;;;373728;26;928;-81
2024/04/18 00:40:58;;;;;;;;;;;;;;;;;;373568;26;1561;-81
2024/04/18 00:41:11;;;;;;;;;;;;;;;;;;368751;26;1320;-80
2024/04/18 00:41:21;;;;;;;;;;;;;;;;;;366464;27;1060;-81
2024/04/18 00:41:32;;;;;;;;;;;;;;;;;;368674;26;1485;-80
2024/04/18 00:41:42;;;;;;;;;;;;;;;;;;368923;26;1016;-81
2024/04/18 00:41:52;;;;;;;;;;;;;;;;;;368817;26;1055;-80
2024/04/18 00:42:02;;;;;;;;;;;;;;;;;;371238;26;1019;-81
2024/04/18 00:42:13;;;;;;;;;;;;;;;;;;368801;26;1473;-81
2024/04/18 00:42:23;;;;;;;;;;;;;;;;;;366360;27;842;-80
2024/04/18 00:42:33;;;;;;;;;;;;;;;;;;366368;27;1016;-81
2024/04/18 00:42:44;;;;;;;;;;;;;;;;;;367447;26;1421;-80
2024/04/18 00:42:54;;;;;;;;;;;;;;;;;;368685;26;1822;-81
2024/04/18 00:43:05;;;;;;;;;;;;;;;;;;368412;26;1193;-80
2024/04/18 00:43:15;;;;;;;;;;;;;;;;;;368634;26;1244;-81
2024/04/18 00:43:25;;;;;;;;;;;;;;;;;;373442;26;1283;-81
2024/04/18 00:43:37;;;;;;;;;;;;;;;;;;368702;26;1444;-81
2024/04/18 00:43:47;;;;;;;;;;;;;;;;;;368720;26;1012;-81
2024/04/18 00:43:57;;;;;;;;;;;;;;;;;;371205;26;936;-81
2024/04/18 00:44:09;;;;;;;;;;;;;;;;;;371136;26;1020;-81
2024/04/18 00:44:21;;;;;;;;;;;;;;;;;;368755;26;1000;-80
2024/04/18 00:44:31;;;;;;;;;;;;;;;;;;368581;26;1278;-81
2024/04/18 00:44:42;;;;;;;;;;;;;;;;;;368755;26;1091;-80
2024/04/18 00:44:52;;;;;;;;;;;;;;;;;;368667;26;1333;-81
2024/04/18 00:45:02;;;;;;;;;;;;;;;;;;366496;27;1024;-81
2024/04/18 00:45:13;;;;;;;;;;;;;;;;;;366260;27;1282;-81
2024/04/18 00:45:23;;;;;;;;;;;;;;;;;;366380;27;1254;-80
2024/04/18 00:45:33;;;;;;;;;;;;;;;;;;366295;27;996;-81
2024/04/18 00:45:43;;;;;;;;;;;;;;;;;;368784;26;1024;-81
2024/04/18 00:45:55;;;;;;;;;;;;;;;;;;368821;26;1000;-81
2024/04/18 00:46:05;;;;;;;;;;;;;;;;;;368675;26;1236;-81
2024/04/18 00:46:16;;;;;;;;;;;;;;;;;;371238;26;1031;-81
2024/04/18 00:46:27;;;;;;;;;;;;;;;;;;368577;26;1000;-81
2024/04/18 00:46:38;;;;;;;;;;;;;;;;;;371266;26;1019;-81
2024/04/18 00:46:48;;;;;;;;;;;;;;;;;;366236;27;1305;-81
2024/04/18 00:46:59;;;;;;;;;;;;;;;;;;366425;27;1060;-81
2024/04/18 00:47:09;;;;;;;;;;;;;;;;;;368821;26;1008;-81
2024/04/18 00:47:19;;;;;;;;;;;;;;;;;;368580;26;2016;-81
2024/04/18 00:47:29;;;;;;;;;;;;;;;;;;366232;27;1318;-81
2024/04/18 00:47:40;;;;;;;;;;;;;;;;;;366395;27;1004;-81
2024/04/18 00:47:50;;;;;;;;;;;;;;;;;;366365;27;1256;-80
2024/04/18 00:48:01;;;;;;;;;;;;;;;;;;366125;27;1311;-81
2024/04/18 00:48:11;;;;;;;;;;;;;;;;;;366415;27;1021;-81
2024/04/18 00:48:22;;;;;;;;;;;;;;;;;;366385;27;1036;-81
2024/04/18 00:48:33;;;;;;;;;;;;;;;;;;368866;26;1024;-80
2024/04/18 00:48:43;;;;;;;;;;;;;;;;;;368822;26;1011;-81
2024/04/18 00:48:57;;;;;;;;;;;;;;;;;;368792;26;1366;-81
2024/04/18 00:49:07;;;;;;;;;;;;;;;;;;368752;26;925;-80
2024/04/18 00:49:18;;;;;;;;;;;;;;;;;;368827;26;992;-81
2024/04/18 00:49:28;;;;;;;;;;;;;;;;;;368716;26;1017;-81
2024/04/18 00:49:39;;;;;;;;;;;;;;;;;;371199;26;1047;-80
2024/04/18 00:49:49;;;;;;;;;;;;;;;;;;368167;26;1443;-80
2024/04/18 00:50:00;;;;;;;;;;;;;;;;;;366538;26;1685;-80
2024/04/18 00:50:10;;;;;;;;;;;;;;;;;;366272;27;775;-80
2024/04/18 00:50:21;;;;;;;;;;;;;;;;;;368682;26;1215;-80
2024/04/18 00:50:31;;;;;;;;;;;;;;;;;;368756;26;980;-81
2024/04/18 00:50:41;;;;;;;;;;;;;;;;;;368867;26;993;-81
2024/04/18 00:50:53;;;;;;;;;;;;;;;;;;371282;26;810;-81
2024/04/18 00:51:04;;;;;;;;;;;;;;;;;;371228;26;1024;-80
2024/04/18 00:51:14;;;;;;;;;;;;;;;;;;370116;26;1291;-81
2024/04/18 00:51:25;;;;;;;;;;;;;;;;;;371288;26;1055;-81
2024/04/18 00:51:35;;;;;;;;;;;;;;;;;;371253;26;984;-81
2024/04/18 00:51:46;;;;;;;;;;;;;;;;;;371272;26;984;-81
2024/04/18 00:51:56;;;;;;;;;;;;;;;;;;371201;26;1047;-81
2024/04/18 00:52:08;;;;;;;;;;;;;;;;;;368707;26;1253;-80
2024/04/18 00:52:20;;;;;;;;;;;;;;;;;;370366;26;1092;-81
2024/04/18 00:52:30;;;;;;;;;;;;;;;;;;372172;26;1588;-81
2024/04/18 00:52:41;;;;;;;;;;;;;;;;;;371203;26;924;-81
2024/04/18 00:52:51;;;;;;;;;;;;;;;;;;373074;26;1441;-81
2024/04/18 00:53:02;;;;;;;;;;;;;;;;;;371234;26;984;-81
2024/04/18 00:53:12;;;;;;;;;;;;;;;;;;371230;26;905;-81
2024/04/18 00:53:24;;;;;;;;;;;;;;;;;;371213;26;841;-81
2024/04/18 00:53:34;;;;;;;;;;;;;;;;;;368810;26;984;-81
2024/04/18 00:53:45;;;;;;;;;;;;;;;;;;366457;27;984;-81
2024/04/18 00:53:56;;;;;;;;;;;;;;;;;;366414;27;853;-81
2024/04/18 00:54:07;;;;;;;;;;;;;;;;;;368469;26;919;-80
2024/04/18 00:54:17;;;;;;;;;;;;;;;;;;366353;27;997;-81
2024/04/18 00:54:28;;;;;;;;;;;;;;;;;;367339;26;783;-80
2024/04/18 00:54:38;;;;;;;;;;;;;;;;;;368714;26;1309;-81
2024/04/18 00:54:49;;;;;;;;;;;;;;;;;;368819;26;1016;-81
2024/04/18 00:55:00;;;;;;;;;;;;;;;;;;368893;26;980;-81
2024/04/18 00:55:10;;;;;;;;;;;;;;;;;;366492;27;1040;-81
2024/04/18 00:55:20;;;;;;;;;;;;;;;;;;366462;27;997;-81
2024/04/18 00:55:32;;;;;;;;;;;;;;;;;;366412;27;1013;-81
2024/04/18 00:55:42;;;;;;;;;;;;;;;;;;366440;27;861;-81
2024/04/18 00:55:54;;;;;;;;;;;;;;;;;;366499;27;1092;-81
2024/04/18 00:56:05;;;;;;;;;;;;;;;;;;366298;27;1252;-81
2024/04/18 00:56:16;;;;;;;;;;;;;;;;;;366338;27;1286;-81
2024/04/18 00:56:27;;;;;;;;;;;;;;;;;;368707;26;1255;-80
2024/04/18 00:56:38;;;;;;;;;;;;;;;;;;368780;26;930;-81
2024/04/18 00:56:48;;;;;;;;;;;;;;;;;;368618;26;1687;-81
2024/04/18 00:56:58;;;;;;;;;;;;;;;;;;368787;26;967;-81
2024/04/18 00:57:08;;;;;;;;;;;;;;;;;;368880;26;997;-81
2024/04/18 00:57:19;;;;;;;;;;;;;;;;;;366338;27;1236;-81
2024/04/18 00:57:29;;;;;;;;;;;;;;;;;;368686;26;1272;-81
2024/04/18 00:57:40;;;;;;;;;;;;;;;;;;371500;26;810;-80
2024/04/18 00:57:50;;;;;;;;;;;;;;;;;;371032;26;1452;-81
2024/04/18 00:58:00;;;;;;;;;;;;;;;;;;371232;26;985;-81
2024/04/18 00:58:11;;;;;;;;;;;;;;;;;;368255;26;1436;-80
2024/04/18 00:58:21;;;;;;;;;;;;;;;;;;366253;27;1073;-81
2024/04/18 00:58:32;;;;;;;;;;;;;;;;;;366212;27;906;-80
2024/04/18 00:58:42;;;;;;;;;;;;;;;;;;368693;26;1228;-81
2024/04/18 00:58:52;;;;;;;;;;;;;;;;;;368738;26;1040;-81
2024/04/18 00:59:03;;;;;;;;;;;;;;;;;;366340;27;1113;-81
2024/04/18 00:59:14;;;;;;;;;;;;;;;;;;366348;27;1004;-81
2024/04/18 00:59:24;;;;;;;;;;;;;;;;;;368869;26;1292;-81
2024/04/18 00:59:35;;;;;;;;;;;;;;;;;;368811;26;1001;-81
2024/04/18 00:59:46;;;;;;;;;;;;;;;;;;368777;26;1032;-81
2024/04/18 00:59:57;;;;;;;;;;;;;;;;;;368791;26;989;-81
2024/04/18 01:00:08;;;;;;;;;;;;;;;;;;368807;26;909;-81
2024/04/18 01:00:19;;;;;;;;;;;;;;;;;;366322;27;1048;-80
2024/04/18 01:00:29;;;;;;;;;;;;;;;;;;366382;27;850;-80
2024/04/18 01:00:40;;;;;;;;;;;;;;;;;;368825;26;1052;-81
2024/04/18 01:00:52;;;;;;;;;;;;;;;;;;368725;26;833;-81
2024/04/18 01:01:02;;;;;;;;;;;;;;;;;;368560;26;1392;-80
2024/04/18 01:01:13;;;;;;;;;;;;;;;;;;368785;26;1063;-81
2024/04/18 01:01:25;;;;;;;;;;;;;;;;;;371092;26;1295;-80
2024/04/18 01:01:36;;;;;;;;;;;;;;;;;;371136;26;999;-81
2024/04/18 01:01:49;;;;;;;;;;;;;;;;;;371202;26;850;-81
2024/04/18 01:01:59;;;;;;;;;;;;;;;;;;371143;26;1123;-81
2024/04/18 01:02:09;;;;;;;;;;;;;;;;;;372158;26;1913;-80
2024/04/18 01:02:23;;;;;;;;;;;;;;;;;;373306;26;1272;-80
2024/04/18 01:02:33;;;;;;;;;;;;;;;;;;370476;26;1432;-81
2024/04/18 01:02:43;;;;;;;;;;;;;;;;;;371088;26;1012;-81
2024/04/18 01:02:54;;;;;;;;;;;;;;;;;;371192;26;1822;-81
2024/04/18 01:03:04;;;;;;;;;;;;;;;;;;371072;26;1047;-81
2024/04/18 01:03:14;;;;;;;;;;;;;;;;;;371249;26;885;-81
2024/04/18 01:03:24;;;;;;;;;;;;;;;;;;371088;26;933;-81
2024/04/18 01:03:35;;;;;;;;;;;;;;;;;;371211;26;1039;-81
2024/04/18 01:03:46;;;;;;;;;;;;;;;;;;368689;26;1021;-81
2024/04/18 01:03:57;;;;;;;;;;;;;;;;;;368705;26;1247;-81
2024/04/18 01:04:07;;;;;;;;;;;;;;;;;;368755;26;1031;-81
2024/04/18 01:04:18;;;;;;;;;;;;;;;;;;370572;26;963;-81
2024/04/18 01:04:28;;;;;;;;;;;;;;;;;;366158;27;1295;-81
2024/04/18 01:04:38;;;;;;;;;;;;;;;;;;366179;27;1004;-80
2024/04/18 01:04:49;;;;;;;;;;;;;;;;;;368402;26;1282;-81
2024/04/18 01:05:00;;;;;;;;;;;;;;;;;;368603;26;959;-81
2024/04/18 01:05:10;;;;;;;;;;;;;;;;;;366230;27;1299;-81
2024/04/18 01:05:20;;;;;;;;;;;;;;;;;;366353;27;1264;-81
2024/04/18 01:05:31;;;;;;;;;;;;;;;;;;366409;27;1036;-80
2024/04/18 01:05:44;;;;;;;;;;;;;;;;;;363904;27;1375;-81
2024/04/18 01:05:55;;;;;;;;;;;;;;;;;;368142;26;1072;-80
2024/04/18 01:06:08;;;;;;;;;;;;;;;;;;368763;26;976;-81
2024/04/18 01:06:19;;;;;;;;;;;;;;;;;;368857;26;853;-81
2024/04/18 01:06:29;;;;;;;;;;;;;;;;;;371138;26;1068;-81
2024/04/18 01:06:42;;;;;;;;;;;;;;;;;;371228;26;999;-80
2024/04/18 01:06:52;;;;;;;;;;;;;;;;;;370999;26;1004;-80
2024/04/18 01:07:03;;;;;;;;;;;;;;;;;;371253;26;790;-81
2024/04/18 01:07:13;;;;;;;;;;;;;;;;;;371118;26;912;-81
2024/04/18 01:07:24;;;;;;;;;;;;;;;;;;368654;26;1282;-81
2024/04/18 01:07:34;;;;;;;;;;;;;;;;;;368596;26;1186;-80
2024/04/18 01:07:44;;;;;;;;;;;;;;;;;;368730;26;921;-81
2024/04/18 01:07:54;;;;;;;;;;;;;;;;;;366153;26;1004;-80
2024/04/18 01:08:05;;;;;;;;;;;;;;;;;;366415;27;1013;-81
2024/04/18 01:08:15;;;;;;;;;;;;;;;;;;365889;27;1334;-81
2024/04/18 01:08:25;;;;;;;;;;;;;;;;;;366410;27;1005;-81
2024/04/18 01:08:37;;;;;;;;;;;;;;;;;;368668;26;1298;-81
2024/04/18 01:08:47;;;;;;;;;;;;;;;;;;368805;26;866;-80
2024/04/18 01:09:00;;;;;;;;;;;;;;;;;;368787;26;1021;-80
2024/04/18 01:09:10;;;;;;;;;;;;;;;;;;371003;26;1562;-81
2024/04/18 01:09:20;;;;;;;;;;;;;;;;;;368718;26;1023;-81
2024/04/18 01:09:31;;;;;;;;;;;;;;;;;;368810;26;905;-81
2024/04/18 01:09:41;;;;;;;;;;;;;;;;;;366420;27;1001;-80
2024/04/18 01:09:51;;;;;;;;;;;;;;;;;;366457;27;1028;-81
2024/04/18 01:10:01;;;;;;;;;;;;;;;;;;366316;27;1189;-81
2024/04/18 01:10:12;;;;;;;;;;;;;;;;;;366390;27;1000;-81
2024/04/18 01:10:22;;;;;;;;;;;;;;;;;;366370;27;997;-81
2024/04/18 01:10:32;;;;;;;;;;;;;;;;;;368755;26;1012;-81
2024/04/18 01:10:42;;;;;;;;;;;;;;;;;;369974;26;1127;-80
2024/04/18 01:10:53;;;;;;;;;;;;;;;;;;373412;26;1368;-81
2024/04/18 01:11:03;;;;;;;;;;;;;;;;;;373461;26;1008;-81
2024/04/18 01:11:13;;;;;;;;;;;;;;;;;;368752;26;1683;-81
2024/04/18 01:11:23;;;;;;;;;;;;;;;;;;366106;27;1227;-81
2024/04/18 01:11:33;;;;;;;;;;;;;;;;;;368649;26;1289;-81
2024/04/18 01:11:44;;;;;;;;;;;;;;;;;;368800;26;782;-81
2024/04/18 01:11:54;;;;;;;;;;;;;;;;;;368729;26;996;-80
2024/04/18 01:12:04;;;;;;;;;;;;;;;;;;368732;26;1011;-81
2024/04/18 01:12:14;;;;;;;;;;;;;;;;;;368613;26;1012;-80
2024/04/18 01:12:24;;;;;;;;;;;;;;;;;;366487;27;977;-81
2024/04/18 01:12:35;;;;;;;;;;;;;;;;;;366311;27;926;-81
2024/04/18 01:12:57;;;;;;;;;;;;;;;;;;366487;27;783;-81
2024/04/18 01:13:07;;;;;;;;;;;;;;;;;;364001;27;1005;-81
2024/04/18 01:13:18;;;;;;;;;;;;;;;;;;364865;27;898;-81
2024/04/18 01:13:37;;;;;;;;;;;;;;;;;;366308;27;1011;-81
2024/04/18 01:13:48;;;;;;;;;;;;;;;;;;368834;26;849;-81
2024/04/18 01:13:58;;;;;;;;;;;;;;;;;;369206;26;1358;-81
2024/04/18 01:14:09;;;;;;;;;;;;;;;;;;371239;26;833;-81
2024/04/18 01:14:19;;;;;;;;;;;;;;;;;;371115;26;1040;-81
2024/04/18 01:14:30;;;;;;;;;;;;;;;;;;371128;26;1213;-81
2024/04/18 01:14:40;;;;;;;;;;;;;;;;;;366335;26;1292;-81